Aviation Digital Data Service (ADDS)

Output produced by METARs form (0921 UTC 24 October 2017)
found at http://aviationweather.gov/adds/metars/
 
KMBS 240825Z 2408/2506 24014G22KT P6SM -RA BKN018 OVC050 
     FM241200 24015G24KT P6SM -RA BKN012 OVC022 
     FM241700 22016G27KT 6SM RA OVC018 
     FM250000 24015G22KT 6SM -RA BKN012 OVC020